Time;durP1;ratioP1;P1;durP2;ratioP2;P2;SDS_P1;SDS_P2;PMS_P1;PMS_P2;Temp;Humidity;BMP_temperature;BMP_pressure;BME280_temperature;BME280_humidity;BME280_pressure;Samples;Min_cycle;Max_cycle;Signal;HPM_P1;HPM_P2
2023/04/01 00:01:42;;;;;;;;;0.00;0.00;;;;;14.06;100.00;99809.72;5080808;28;45724;-80
2023/04/01 00:04:08;;;;;;;;;1.67;1.67;;;;;13.76;100.00;99760.47;5062218;27;46062;-80
2023/04/01 00:06:33;;;;;;;;;1.67;0.00;;;;;13.94;100.00;99785.59;5080959;28;46269;-80
2023/04/01 00:08:59;;;;;;;;;2.00;2.00;;;;;14.02;100.00;99795.16;5047099;28;45167;-80
2023/04/01 00:11:27;;;;;;;;;4.00;1.67;;;;;14.07;100.00;99781.16;5067479;28;45449;-80
2023/04/01 00:13:52;;;;;;;;;2.33;1.33;;;;;14.18;100.00;99806.31;5080452;28;45568;-80
2023/04/01 00:16:18;;;;;;;;;0.67;0.67;;;;;14.17;100.00;99810.84;5080584;27;45424;-80
2023/04/01 00:18:43;;;;;;;;;1.00;1.00;;;;;14.08;100.00;99782.78;5061602;28;45325;-80
2023/04/01 00:21:09;;;;;;;;;3.00;2.00;;;;;14.25;100.00;99815.91;5080513;28;45569;-80
2023/04/01 00:23:35;;;;;;;;;2.00;2.00;;;;;14.13;100.00;99799.78;5080341;28;45779;-79
2023/04/01 00:26:01;;;;;;;;;1.33;1.33;;;;;14.13;100.00;99802.44;5080638;28;46081;-80
2023/04/01 00:28:27;;;;;;;;;1.67;1.67;;;;;14.21;100.00;99809.38;5075071;28;45828;-80
2023/04/01 00:30:52;;;;;;;;;2.00;2.00;;;;;14.18;100.00;99812.47;5061164;28;45653;-81
2023/04/01 00:33:17;;;;;;;;;1.00;1.00;;;;;13.91;100.00;99771.88;5079293;28;45503;-80
2023/04/01 00:35:44;;;;;;;;;1.00;0.00;;;;;13.95;100.00;99768.50;5079222;28;45335;-80
2023/04/01 00:38:11;;;;;;;;;0.00;0.00;;;;;13.97;100.00;99790.50;5079268;28;45364;-80
2023/04/01 00:40:43;;;;;;;;;1.33;1.00;;;;;14.10;100.00;99810.91;5080368;28;45363;-80
2023/04/01 00:43:19;;;;;;;;;1.67;1.00;;;;;14.12;100.00;99818.69;5084019;28;45449;-80
2023/04/01 00:45:45;;;;;;;;;1.00;1.00;;;;;14.14;100.00;99819.31;5085638;28;45596;-81
2023/04/01 00:48:16;;;;;;;;;1.00;1.00;;;;;13.89;100.00;99774.75;5065932;28;45492;-80
2023/04/01 00:50:48;;;;;;;;;0.67;0.00;;;;;14.14;100.00;99816.63;5066790;28;45506;-81
2023/04/01 00:53:15;;;;;;;;;1.67;1.67;;;;;13.98;100.00;99794.78;5080117;28;45308;-80
2023/04/01 00:55:49;;;;;;;;;1.00;1.00;;;;;14.15;100.00;99815.59;5063298;28;46240;-80
2023/04/01 00:58:18;;;;;;;;;2.00;2.00;;;;;14.08;100.00;99804.16;5082749;28;45270;-81
2023/04/01 01:00:46;;;;;;;;;1.67;1.00;;;;;14.11;100.00;99809.06;5084641;28;45338;-79
2023/04/01 01:03:12;;;;;;;;;1.00;1.00;;;;;14.01;100.00;99796.22;5070278;28;45537;-80
2023/04/01 01:06:06;;;;;;;;;2.00;0.33;;;;;13.96;100.00;99796.03;5082661;28;46125;-81
2023/04/01 01:08:53;;;;;;;;;1.33;1.33;;;;;14.06;100.00;99809.72;5082613;28;45394;-80
2023/04/01 01:11:29;;;;;;;;;0.00;0.00;;;;;13.99;100.00;99807.13;5070686;28;45348;-80
2023/04/01 01:14:21;;;;;;;;;1.00;1.00;;;;;14.00;100.00;99815.94;5082993;28;45403;-80
2023/04/01 01:16:56;;;;;;;;;2.00;1.00;;;;;13.94;100.00;99795.44;5082482;28;45458;-80
2023/04/01 01:19:47;;;;;;;;;0.00;0.00;;;;;13.98;100.00;99824.16;5084198;28;45430;-80
2023/04/01 01:22:50;;;;;;;;;2.67;1.33;;;;;13.79;100.00;99801.13;5083715;27;45492;-80
2023/04/01 01:25:24;;;;;;;;;1.00;1.00;;;;;14.01;100.00;99806.91;5083059;28;45477;-80
2023/04/01 01:28:02;;;;;;;;;1.00;1.00;;;;;13.92;100.00;99813.56;5082717;28;45487;-81
2023/04/01 01:30:48;;;;;;;;;0.33;0.00;;;;;13.93;100.00;99816.00;5082707;28;45228;-79
2023/04/01 01:33:30;;;;;;;;;1.00;1.00;;;;;13.88;100.00;99807.81;5081802;27;45470;-79
2023/04/01 01:36:00;;;;;;;;;1.00;1.00;;;;;13.66;100.00;99800.22;5081506;28;45295;-80
2023/04/01 01:38:30;;;;;;;;;1.33;1.00;;;;;13.69;100.00;99799.78;5082245;28;45616;-80
2023/04/01 01:40:58;;;;;;;;;1.33;0.00;;;;;13.75;100.00;99825.63;5081710;28;45299;-80
2023/04/01 01:43:35;;;;;;;;;1.00;1.00;;;;;13.13;100.00;99788.84;5081604;28;45368;-79
2023/04/01 01:46:07;;;;;;;;;1.67;1.67;;;;;13.68;100.00;99824.03;5081423;28;45405;-79
2023/04/01 01:48:34;;;;;;;;;1.33;1.00;;;;;13.62;100.00;99817.72;5081417;28;46329;-79
2023/04/01 01:51:00;;;;;;;;;2.00;0.67;;;;;13.69;100.00;99821.13;5063551;28;45360;-79
2023/04/01 01:53:25;;;;;;;;;1.00;1.00;;;;;13.69;100.00;99829.16;5080546;28;45578;-79
2023/04/01 01:55:51;;;;;;;;;0.00;0.00;;;;;13.67;100.00;99817.03;5081774;28;45439;-79
2023/04/01 01:58:25;;;;;;;;;0.00;0.00;;;;;13.62;100.00;99815.03;5068557;28;45439;-80
2023/04/01 02:00:55;;;;;;;;;0.00;0.00;;;;;13.60;100.00;99819.75;5081971;28;45352;-79
2023/04/01 02:03:24;;;;;;;;;1.00;0.00;;;;;13.70;100.00;99840.63;5082290;28;45463;-80
2023/04/01 02:05:53;;;;;;;;;2.67;2.00;;;;;13.67;100.00;99836.53;5081513;28;45403;-79
2023/04/01 02:08:26;;;;;;;;;1.00;1.00;;;;;13.62;100.00;99821.19;5081421;28;45481;-80
2023/04/01 02:10:59;;;;;;;;;0.00;0.00;;;;;13.60;100.00;99833.13;5081128;28;45394;-79
2023/04/01 02:13:31;;;;;;;;;2.33;0.33;;;;;13.63;100.00;99844.19;5081721;28;45269;-79
2023/04/01 02:16:00;;;;;;;;;3.33;0.00;;;;;13.53;100.00;99819.00;5075594;28;45298;-79
2023/04/01 02:18:25;;;;;;;;;1.00;0.00;;;;;13.50;100.00;99828.25;5074219;28;45286;-79
2023/04/01 02:20:51;;;;;;;;;3.33;1.00;;;;;13.26;100.00;99787.97;5080797;28;47104;-79
2023/04/01 02:23:17;;;;;;;;;0.00;0.00;;;;;13.52;100.00;99828.06;5081689;28;45651;-79
2023/04/01 02:25:44;;;;;;;;;0.00;0.00;;;;;13.55;100.00;99831.09;5081235;28;45359;-78
2023/04/01 02:28:12;;;;;;;;;1.00;1.00;;;;;13.60;100.00;99849.13;5080821;28;46091;-79
2023/04/01 02:30:40;;;;;;;;;0.33;0.33;;;;;13.59;100.00;99842.16;5080676;27;45239;-79
2023/04/01 02:33:06;;;;;;;;;1.00;1.00;;;;;13.57;100.00;99847.72;5080984;28;45508;-79
2023/04/01 02:35:35;;;;;;;;;0.00;0.00;;;;;13.57;100.00;99838.88;5081256;27;45482;-79
2023/04/01 02:38:01;;;;;;;;;1.00;0.33;;;;;13.57;100.00;99849.56;5080628;28;46060;-79
2023/04/01 02:40:27;;;;;;;;;0.33;0.33;;;;;13.59;100.00;99850.97;5080938;28;45368;-80
2023/04/01 02:42:52;;;;;;;;;1.33;0.33;;;;;13.56;100.00;99839.94;5080681;28;45476;-79
2023/04/01 02:45:17;;;;;;;;;1.00;1.00;;;;;13.50;100.00;99836.28;5069128;28;45446;-79
2023/04/01 02:47:43;;;;;;;;;1.00;1.00;;;;;13.58;100.00;99854.69;5079294;28;46113;-80
2023/04/01 02:50:09;;;;;;;;;0.00;0.00;;;;;13.59;100.00;99836.81;5081326;28;45311;-79
2023/04/01 02:52:35;;;;;;;;;0.00;0.00;;;;;13.61;100.00;99848.91;5081060;28;45272;-79
2023/04/01 02:55:00;;;;;;;;;1.33;1.33;;;;;13.58;100.00;99832.50;5080485;28;45557;-79
2023/04/01 02:57:25;;;;;;;;;2.00;0.00;;;;;13.51;100.00;99811.22;5080020;28;46718;-79
2023/04/01 02:59:51;;;;;;;;;1.00;1.00;;;;;13.48;100.00;99825.78;5080683;28;45312;-79
2023/04/01 03:02:16;;;;;;;;;2.33;1.00;;;;;13.71;100.00;99847.63;5081542;28;45429;-79
2023/04/01 03:04:42;;;;;;;;;0.00;0.00;;;;;13.74;100.00;99857.88;5062024;28;47288;-80
2023/04/01 03:07:09;;;;;;;;;1.00;0.67;;;;;13.67;100.00;99844.56;5080234;28;46522;-80
2023/04/01 03:09:35;;;;;;;;;1.00;1.00;;;;;13.70;100.00;99854.81;5080416;28;45422;-79
2023/04/01 03:12:01;;;;;;;;;1.00;1.00;;;;;13.63;100.00;99848.69;5062215;28;45271;-80
2023/04/01 03:14:26;;;;;;;;;1.67;1.00;;;;;13.67;100.00;99839.22;5061667;28;47123;-79
2023/04/01 03:16:52;;;;;;;;;0.67;0.67;;;;;13.80;100.00;99856.97;5079946;28;45279;-79
2023/04/01 03:19:17;;;;;;;;;2.00;2.00;;;;;13.82;100.00;99867.44;5080607;27;47635;-79
2023/04/01 03:21:42;;;;;;;;;2.00;0.00;;;;;13.85;100.00;99869.69;5080433;28;47068;-80
2023/04/01 03:24:07;;;;;;;;;3.33;2.00;;;;;13.88;100.00;99871.94;5080541;28;45226;-80
2023/04/01 03:26:33;;;;;;;;;1.00;0.67;;;;;13.86;100.00;99861.47;5066743;28;46264;-80
2023/04/01 03:28:58;;;;;;;;;1.00;0.00;;;;;13.85;100.00;99857.16;5079877;28;45494;-79
2023/04/01 03:31:24;;;;;;;;;0.00;0.00;;;;;13.87;100.00;99859.63;5069267;28;45764;-79
2023/04/01 03:33:49;;;;;;;;;0.00;0.00;;;;;13.88;100.00;99866.59;5080523;28;45169;-80
2023/04/01 03:36:15;;;;;;;;;0.00;0.00;;;;;13.91;100.00;99868.03;5061864;28;47192;-79
2023/04/01 03:38:41;;;;;;;;;4.00;0.00;;;;;13.94;100.00;99871.06;5079705;28;45410;-80
2023/04/01 03:41:06;;;;;;;;;0.00;0.00;;;;;14.03;100.00;99878.81;5061783;27;45375;-80
2023/04/01 03:43:32;;;;;;;;;0.00;0.00;;;;;13.95;100.00;99861.19;5081346;28;45396;-81
2023/04/01 03:45:57;;;;;;;;;1.00;0.00;;;;;13.95;100.00;99875.34;5062492;28;47135;-80
2023/04/01 03:48:23;;;;;;;;;1.00;1.00;;;;;13.88;100.00;99867.41;5049335;28;45450;-81
2023/04/01 03:50:48;;;;;;;;;1.00;0.00;;;;;13.92;100.00;99869.66;5080804;28;45505;-80
2023/04/01 03:53:15;;;;;;;;;1.00;1.00;;;;;13.91;100.00;99870.69;5080174;28;45278;-80
2023/04/01 03:55:41;;;;;;;;;1.00;1.00;;;;;13.96;100.00;99893.03;5079814;27;46212;-81
2023/04/01 03:58:07;;;;;;;;;1.00;1.00;;;;;13.89;100.00;99878.91;5080305;28;45288;-80
2023/04/01 04:00:33;;;;;;;;;1.00;1.00;;;;;13.98;100.00;99893.63;5081007;28;45460;-80
2023/04/01 04:02:58;;;;;;;;;1.00;1.00;;;;;14.07;100.00;99896.03;5061717;28;45903;-81
2023/04/01 04:05:25;;;;;;;;;0.67;0.00;;;;;13.93;100.00;99893.47;5080646;28;45269;-80
2023/04/01 04:07:52;;;;;;;;;2.00;2.00;;;;;13.88;100.00;99887.94;5080369;28;45325;-80
2023/04/01 04:10:18;;;;;;;;;1.00;1.00;;;;;13.82;100.00;99891.47;5068390;28;45323;-80
2023/04/01 04:12:43;;;;;;;;;1.00;1.00;;;;;13.86;100.00;99890.03;5078940;28;45354;-80
2023/04/01 04:15:09;;;;;;;;;0.00;0.00;;;;;13.76;100.00;99882.50;5062323;28;46489;-80
2023/04/01 04:17:35;;;;;;;;;0.67;0.67;;;;;13.54;100.00;99868.69;5084000;28;45345;-80
2023/04/01 04:20:00;;;;;;;;;2.00;2.00;;;;;13.68;100.00;99893.44;5084679;28;45380;-80
2023/04/01 04:22:26;;;;;;;;;1.00;1.00;;;;;13.66;100.00;99882.97;5084029;28;45447;-80
2023/04/01 04:24:51;;;;;;;;;2.00;1.00;;;;;13.78;100.00;99906.31;5062775;28;47544;-80
2023/04/01 04:27:17;;;;;;;;;1.00;1.00;;;;;13.75;100.00;99895.03;5069069;28;51097;-79
2023/04/01 04:29:42;;;;;;;;;3.00;1.00;;;;;13.80;100.00;99910.41;5084227;28;45911;-80
2023/04/01 04:32:08;;;;;;;;;2.00;1.00;;;;;13.86;100.00;99906.06;5083750;28;45351;-80
2023/04/01 04:34:33;;;;;;;;;0.33;0.33;;;;;13.84;100.00;99894.78;5066274;27;48337;-79
2023/04/01 04:36:59;;;;;;;;;1.00;1.00;;;;;13.89;100.00;99889.59;5083932;28;45489;-80
2023/04/01 04:39:24;;;;;;;;;1.00;1.00;;;;;13.94;100.00;99908.44;5065650;28;45297;-81
2023/04/01 04:41:49;;;;;;;;;3.00;0.00;;;;;13.66;100.00;99866.97;5082798;28;45371;-80
2023/04/01 04:44:15;;;;;;;;;1.00;1.00;;;;;13.93;100.00;99904.16;5083458;28;45344;-79
2023/04/01 04:46:40;;;;;;;;;0.00;0.00;;;;;13.98;100.00;99920.34;5084695;28;45379;-80
2023/04/01 04:49:06;;;;;;;;;1.00;0.00;;;;;13.95;100.00;99909.28;5066402;28;45467;-80
2023/04/01 04:51:33;;;;;;;;;1.33;0.33;;;;;13.99;100.00;99913.97;5083543;28;45229;-80
2023/04/01 04:53:59;;;;;;;;;0.00;0.00;;;;;14.00;100.00;99915.59;5083527;28;45529;-80
2023/04/01 04:56:25;;;;;;;;;2.00;0.00;;;;;13.93;100.00;99895.31;5084413;28;45396;-79
2023/04/01 04:58:51;;;;;;;;;1.00;1.00;;;;;13.98;100.00;99923.00;5082939;28;45336;-80
2023/04/01 05:01:17;;;;;;;;;1.00;1.00;;;;;14.07;100.00;99931.56;5082540;28;45323;-80
2023/04/01 05:03:44;;;;;;;;;3.00;1.00;;;;;14.04;100.00;99923.19;5083112;28;45332;-80
2023/04/01 05:06:11;;;;;;;;;1.00;1.00;;;;;14.08;100.00;99927.88;5083278;28;45382;-80
2023/04/01 05:08:38;;;;;;;;;0.00;0.00;;;;;14.04;100.00;99934.69;5083896;28;45353;-81
2023/04/01 05:11:03;;;;;;;;;2.00;1.00;;;;;13.94;100.00;99905.78;5082263;27;45343;-79
2023/04/01 05:13:29;;;;;;;;;0.00;0.00;;;;;14.00;100.00;99915.59;5065236;28;48102;-80
2023/04/01 05:15:55;;;;;;;;;2.33;0.67;;;;;14.12;100.00;99941.59;5077292;28;45248;-80
2023/04/01 05:18:21;;;;;;;;;1.67;1.00;;;;;14.13;100.00;99956.63;5074536;28;45342;-80
2023/04/01 05:20:49;;;;;;;;;0.00;0.00;;;;;14.00;100.00;99945.00;5082506;28;45346;-80
2023/04/01 05:23:14;;;;;;;;;2.00;1.00;;;;;14.03;100.00;99932.25;5070640;28;46181;-80
2023/04/01 05:25:40;;;;;;;;;1.00;1.00;;;;;14.05;100.00;99943.50;5082367;28;45360;-80
2023/04/01 05:28:05;;;;;;;;;0.00;0.00;;;;;14.00;100.00;99936.97;5083456;28;45924;-80
2023/04/01 05:30:30;;;;;;;;;0.33;0.00;;;;;13.85;100.00;99913.25;5083013;28;45678;-80
2023/04/01 05:32:56;;;;;;;;;1.00;1.00;;;;;14.07;100.00;99950.28;5084171;28;51876;-81
2023/04/01 05:35:21;;;;;;;;;0.67;0.67;;;;;13.72;100.00;99902.66;5064207;28;47361;-80
2023/04/01 05:37:46;;;;;;;;;1.33;1.33;;;;;13.82;100.00;99932.38;5083363;28;45433;-80
2023/04/01 05:40:12;;;;;;;;;1.67;0.00;;;;;13.91;100.00;99940.94;5081567;28;45340;-81
2023/04/01 05:42:37;;;;;;;;;2.00;2.00;;;;;13.98;100.00;99954.25;5063663;28;46434;-79
2023/04/01 05:45:03;;;;;;;;;1.00;0.00;;;;;13.75;100.00;99921.75;5084095;28;45524;-80
2023/04/01 05:47:28;;;;;;;;;2.00;1.00;;;;;14.06;100.00;99955.81;5082897;28;45446;-75
2023/04/01 05:49:55;;;;;;;;;1.33;0.00;;;;;14.20;100.00;99973.41;5080712;28;53740;-76
2023/04/01 05:52:20;;;;;;;;;1.33;0.33;;;;;14.26;100.00;99966.38;5081550;28;45675;-76
2023/04/01 05:54:45;;;;;;;;;1.67;0.67;;;;;14.25;100.00;99967.44;5062655;28;45371;-76
2023/04/01 05:57:11;;;;;;;;;1.00;1.00;;;;;14.36;100.00;99972.06;5075106;28;45403;-80
2023/04/01 05:59:36;;;;;;;;;1.00;1.00;;;;;14.32;100.00;99965.53;5071534;28;45214;-79
2023/04/01 06:02:02;;;;;;;;;0.00;0.00;;;;;14.16;100.00;99947.34;5052174;28;45549;-80
2023/04/01 06:04:34;;;;;;;;;1.00;1.00;;;;;14.14;100.00;99959.09;5063032;28;45305;-79
2023/04/01 06:06:59;;;;;;;;;3.00;3.00;;;;;14.31;100.00;99982.56;5080345;28;45432;-80
2023/04/01 06:09:30;;;;;;;;;2.00;1.67;;;;;14.29;100.00;99994.53;5081741;28;45473;-80
2023/04/01 06:12:07;;;;;;;;;1.33;1.33;;;;;14.29;100.00;99991.84;5080673;28;46629;-79
2023/04/01 06:15:00;;;;;;;;;3.00;1.00;;;;;14.30;100.00;99994.31;5067718;28;45509;-79
2023/04/01 06:17:35;;;;;;;;;2.00;2.00;;;;;14.30;100.00;99985.50;5063505;28;45542;-80
2023/04/01 06:20:11;;;;;;;;;1.67;1.00;;;;;14.30;100.00;100004.19;5080843;28;45454;-80
2023/04/01 06:22:57;;;;;;;;;2.67;1.00;;;;;14.28;100.00;100001.75;5080693;28;46434;-80
2023/04/01 06:25:36;;;;;;;;;1.00;0.00;;;;;14.25;100.00;99999.50;5062122;28;46166;-80
2023/04/01 06:28:38;;;;;;;;;0.00;0.00;;;;;14.29;100.00;100000.69;5080950;28;45176;-79
2023/04/01 06:31:25;;;;;;;;;4.67;2.00;;;;;14.27;100.00;100013.44;5062447;28;47580;-78
2023/04/01 06:34:13;;;;;;;;;2.33;1.00;;;;;14.24;100.00;100005.88;5062216;28;48224;-80
2023/04/01 06:36:55;;;;;;;;;0.67;0.00;;;;;14.12;100.00;99995.03;5080293;28;46404;-79
2023/04/01 06:39:58;;;;;;;;;1.00;1.00;;;;;14.26;100.00;100020.66;5079890;28;45303;-80
2023/04/01 06:42:39;;;;;;;;;0.00;0.00;;;;;14.25;100.00;100013.66;5068684;28;45992;-80
2023/04/01 06:45:19;;;;;;;;;1.00;1.00;;;;;14.28;100.00;100017.78;5080449;28;45877;-79
2023/04/01 06:47:51;;;;;;;;;1.00;1.00;;;;;14.30;100.00;100018.38;5080185;28;45381;-80
2023/04/01 06:50:58;;;;;;;;;0.33;0.33;;;;;14.30;100.00;100029.06;5046235;28;45411;-80
2023/04/01 06:53:49;;;;;;;;;1.00;1.00;;;;;14.37;100.00;100031.69;5042581;28;46206;-80
2023/04/01 06:56:18;;;;;;;;;0.00;0.00;;;;;14.43;100.00;100025.47;5080075;28;46099;-80
2023/04/01 06:58:53;;;;;;;;;0.67;0.33;;;;;14.36;100.00;100030.88;5073118;28;45379;-81
2023/04/01 07:01:50;;;;;;;;;1.00;1.00;;;;;14.45;100.00;100033.25;5074607;27;45458;-80
2023/04/01 07:04:46;;;;;;;;;0.00;0.00;;;;;14.42;100.00;100025.69;5061661;28;45416;-80
2023/04/01 07:07:30;;;;;;;;;1.00;1.00;;;;;14.46;100.00;100030.38;5041691;28;46716;-80
2023/04/01 07:09:59;;;;;;;;;0.00;0.00;;;;;14.45;100.00;100028.75;5059695;28;45296;-80
2023/04/01 07:12:37;;;;;;;;;3.00;1.33;;;;;14.52;100.00;100055.44;5060286;28;45492;-79
2023/04/01 07:15:19;;;;;;;;;0.00;0.00;;;;;14.45;100.00;100038.59;5058546;28;47046;-79
2023/04/01 07:17:50;;;;;;;;;0.00;0.00;;;;;14.52;100.00;100050.09;5059749;28;45446;-80
2023/04/01 07:20:16;;;;;;;;;0.00;0.00;;;;;14.52;100.00;100056.25;5044066;28;45360;-79
2023/04/01 07:22:54;;;;;;;;;0.33;0.33;;;;;14.56;100.00;100042.44;5059999;28;45447;-79
2023/04/01 07:25:27;;;;;;;;;0.33;0.33;;;;;14.62;100.00;100050.41;5065288;28;45466;-79
2023/04/01 07:27:55;;;;;;;;;1.00;1.00;;;;;14.81;100.00;100047.00;5079572;28;45431;-79
2023/04/01 07:30:24;;;;;;;;;0.67;0.33;;;;;14.81;100.00;100044.34;5063550;28;45637;-79
2023/04/01 07:33:29;;;;;;;;;1.33;0.00;;;;;14.88;100.00;100053.91;5059723;28;45360;-80
2023/04/01 07:36:18;;;;;;;;;0.33;0.33;;;;;14.98;100.00;100056.09;5061061;28;45509;-78
2023/04/01 07:38:50;;;;;;;;;0.00;0.00;;;;;15.07;100.00;100045.94;5042602;28;46424;-78
2023/04/01 07:41:32;;;;;;;;;1.33;0.00;;;;;15.12;100.00;100054.09;5050690;28;45446;-77
2023/04/01 07:44:16;;;;;;;;;0.33;0.33;;;;;15.21;100.00;100068.03;5054106;28;45420;-78
2023/04/01 07:46:55;;;;;;;;;0.67;0.67;;;;;15.26;100.00;100057.47;5044045;28;46028;-77
2023/04/01 07:49:42;;;;;;;;;0.33;0.33;;;;;15.43;100.00;100064.09;5059196;28;47064;-77
2023/04/01 07:52:32;;;;;;;;;0.33;0.00;;;;;15.46;100.00;100066.31;5078553;28;45239;-78
2023/04/01 07:55:13;;;;;;;;;0.00;0.00;;;;;15.44;98.53;100055.03;5075324;28;45512;-78
2023/04/01 07:58:20;;;;;;;;;2.67;0.00;;;;;15.46;98.65;100074.34;5053723;28;47530;-80
2023/04/01 08:01:09;;;;;;;;;0.00;0.00;;;;;15.45;97.85;100070.88;5043149;28;47145;-79
2023/04/01 08:03:40;;;;;;;;;0.00;0.00;;;;;15.43;97.22;100077.47;5076633;28;45366;-78
2023/04/01 08:06:14;;;;;;;;;0.00;0.00;;;;;15.40;96.88;100079.56;5074066;28;45265;-78
2023/04/01 08:08:49;;;;;;;;;2.67;2.00;;;;;15.37;97.01;100077.34;5043954;28;46246;-78
2023/04/01 08:11:23;;;;;;;;;0.00;0.00;;;;;15.44;96.39;100087.16;5055722;28;47441;-78
2023/04/01 08:13:57;;;;;;;;;2.33;2.33;;;;;15.47;96.90;100078.69;5053704;28;45332;-78
2023/04/01 08:16:34;;;;;;;;;0.33;0.33;;;;;15.55;95.86;100072.19;5079384;28;45153;-78
2023/04/01 08:19:18;;;;;;;;;0.00;0.00;;;;;15.62;95.72;100089.00;5060782;28;47239;-78
2023/04/01 08:21:49;;;;;;;;;1.33;0.00;;;;;15.60;93.56;100091.09;5073531;28;45359;-80
2023/04/01 08:24:23;;;;;;;;;4.33;4.33;;;;;15.61;93.57;100084.69;5059168;28;45351;-79
2023/04/01 08:26:55;;;;;;;;;2.33;0.33;;;;;15.55;93.54;100091.75;5080853;27;45422;-77
2023/04/01 08:29:32;;;;;;;;;2.33;1.33;;;;;15.53;94.50;100092.00;5084261;27;45445;-78
2023/04/01 08:32:34;;;;;;;;;0.33;0.33;;;;;15.52;93.21;100097.56;5055147;28;46469;-78
2023/04/01 08:35:15;;;;;;;;;0.00;0.00;;;;;15.46;93.17;100098.44;5042457;28;45500;-77
2023/04/01 08:37:43;;;;;;;;;0.00;0.00;;;;;15.45;93.64;100097.66;5071955;28;45494;-79
2023/04/01 08:40:32;;;;;;;;;1.33;0.33;;;;;15.41;93.60;100093.75;5067493;28;45373;-79
2023/04/01 08:43:13;;;;;;;;;0.67;0.00;;;;;15.37;93.87;100100.59;5069423;28;45936;-79
2023/04/01 08:45:52;;;;;;;;;0.00;0.00;;;;;15.33;92.92;100105.59;5059744;28;45477;-80
2023/04/01 08:48:40;;;;;;;;;0.00;0.00;;;;;15.39;94.04;100107.38;5059505;28;45415;-78
2023/04/01 08:51:11;;;;;;;;;0.33;0.33;;;;;15.44;93.51;100111.25;5070057;28;45528;-78
2023/04/01 08:53:42;;;;;;;;;1.33;0.00;;;;;15.48;94.08;100107.88;5063967;28;46102;-78
2023/04/01 08:56:10;;;;;;;;;1.67;0.67;;;;;15.50;93.91;100107.66;5077844;28;45328;-81
2023/04/01 08:59:03;;;;;;;;;0.00;0.00;;;;;15.50;93.46;100113.84;5078779;28;45237;-80
2023/04/01 09:02:05;;;;;;;;;1.33;0.00;;;;;15.49;92.31;100090.81;5075426;28;45402;-79
2023/04/01 09:04:39;;;;;;;;;0.00;0.00;;;;;15.60;92.75;100124.06;5067697;28;45559;-79
2023/04/01 09:07:31;;;;;;;;;1.00;0.00;;;;;15.55;93.16;100102.47;5070482;28;45489;-78
2023/04/01 09:10:19;;;;;;;;;0.00;0.00;;;;;15.67;93.06;100099.88;5068407;28;45374;-79
2023/04/01 09:12:53;;;;;;;;;0.00;0.00;;;;;15.68;92.40;100106.84;5075864;28;45325;-80
2023/04/01 09:15:24;;;;;;;;;0.00;0.00;;;;;15.64;93.01;100114.53;5059691;28;47308;-80
2023/04/01 09:18:05;;;;;;;;;1.67;0.33;;;;;15.67;93.64;100117.78;5056893;28;45364;-79
2023/04/01 09:21:02;;;;;;;;;0.00;0.00;;;;;15.68;94.62;100117.56;5062600;28;45471;-79
2023/04/01 09:24:09;;;;;;;;;4.67;3.00;;;;;15.79;95.15;100121.38;5070635;28;45395;-80
2023/04/01 09:27:05;;;;;;;;;0.67;0.00;;;;;15.86;95.34;100113.28;5065922;28;47049;-80
2023/04/01 09:30:02;;;;;;;;;0.33;0.33;;;;;15.89;94.67;100096.72;5062593;28;45467;-80
2023/04/01 09:32:55;;;;;;;;;0.00;0.00;;;;;15.99;94.68;100115.81;5077405;28;45377;-79
2023/04/01 09:35:40;;;;;;;;;1.67;0.67;;;;;16.12;93.75;100105.94;5080383;28;45632;-77
2023/04/01 09:38:08;;;;;;;;;0.00;0.00;;;;;16.20;93.46;100113.69;5071656;28;46296;-78
2023/04/01 09:40:54;;;;;;;;;1.00;1.00;;;;;16.19;92.20;100112.03;5062625;28;45407;-79
2023/04/01 09:43:30;;;;;;;;;0.00;0.00;;;;;16.27;92.38;100118.94;5081086;28;45328;-80
2023/04/01 09:46:19;;;;;;;;;0.00;0.00;;;;;16.28;89.94;100116.03;5060040;28;45496;-79
2023/04/01 09:49:03;;;;;;;;;1.00;0.33;;;;;16.36;89.82;100120.25;5060686;28;46045;-80
2023/04/01 09:51:46;;;;;;;;;0.00;0.00;;;;;16.37;87.51;100129.13;5057539;27;45284;-79
2023/04/01 09:54:29;;;;;;;;;0.00;0.00;;;;;16.33;88.09;100120.72;5061789;28;45420;-79
2023/04/01 09:57:12;;;;;;;;;1.00;1.00;;;;;16.30;87.66;100134.56;5065755;28;45495;-78
2023/04/01 10:00:06;;;;;;;;;0.00;0.00;;;;;16.31;87.47;100127.34;5059552;28;45456;-79
2023/04/01 10:02:46;;;;;;;;;0.00;0.00;;;;;16.25;87.35;100132.56;5069241;28;45308;-78
2023/04/01 10:05:38;;;;;;;;;1.67;1.67;;;;;16.37;88.66;100126.44;5080512;28;45533;-80
2023/04/01 10:08:15;;;;;;;;;0.67;0.00;;;;;16.40;87.07;100136.69;5081494;28;45472;-78
2023/04/01 10:11:07;;;;;;;;;0.33;0.00;;;;;16.49;87.22;100124.59;5059634;28;48541;-79
2023/04/01 10:13:53;;;;;;;;;1.00;0.00;;;;;16.47;85.33;100125.88;5059761;28;45411;-80
2023/04/01 10:16:56;;;;;;;;;0.00;0.00;;;;;16.53;84.97;100136.50;5059303;28;45478;-79
2023/04/01 10:19:55;;;;;;;;;1.00;1.00;;;;;16.66;84.15;100135.50;5060418;28;45379;-80
2023/04/01 10:22:41;;;;;;;;;0.67;0.00;;;;;16.71;82.65;100142.88;5061947;28;46419;-80
2023/04/01 10:25:28;;;;;;;;;0.00;0.00;;;;;16.75;81.08;100144.03;5062131;28;45238;-79
2023/04/01 10:28:15;;;;;;;;;2.33;0.33;;;;;16.74;79.34;100138.91;5059343;28;45444;-80
2023/04/01 10:31:08;;;;;;;;;2.33;2.00;;;;;16.73;80.05;100148.81;5078723;28;45698;-80
2023/04/01 10:34:05;;;;;;;;;0.00;0.00;;;;;16.81;79.37;100144.16;5078743;27;45637;-80
2023/04/01 10:36:56;;;;;;;;;0.00;0.00;;;;;16.96;76.68;100141.84;5079477;28;45351;-80
2023/04/01 10:39:27;;;;;;;;;3.00;1.67;;;;;17.08;75.69;100149.13;5061114;28;45363;-80
2023/04/01 10:42:07;;;;;;;;;0.67;0.00;;;;;17.21;75.01;100142.72;5080706;28;45378;-79
2023/04/01 10:45:09;;;;;;;;;0.00;0.00;;;;;17.40;75.22;100133.50;5068978;28;45520;-80
2023/04/01 10:47:56;;;;;;;;;4.00;1.00;;;;;17.66;73.83;100142.09;5062371;28;45344;-79
2023/04/01 10:50:39;;;;;;;;;0.33;0.33;;;;;17.83;71.11;100124.41;5074164;28;45440;-80
2023/04/01 10:53:42;;;;;;;;;1.00;0.00;;;;;17.96;68.16;100140.25;5057878;28;46067;-79
2023/04/01 10:56:27;;;;;;;;;1.00;1.00;;;;;18.12;66.68;100135.22;5080125;28;45449;-79
2023/04/01 10:59:19;;;;;;;;;0.33;0.00;;;;;18.26;69.35;100133.88;5080331;28;45322;-80
2023/04/01 11:02:15;;;;;;;;;0.00;0.00;;;;;18.45;67.25;100139.06;5042566;28;45521;-80
2023/04/01 11:04:55;;;;;;;;;0.33;0.33;;;;;18.61;67.03;100137.44;5066313;28;45486;-79
2023/04/01 11:08:00;;;;;;;;;0.00;0.00;;;;;18.81;66.09;100125.41;5080356;28;45405;-78
2023/04/01 11:10:37;;;;;;;;;0.00;0.00;;;;;18.97;62.45;100121.06;5080306;28;45304;-79
2023/04/01 11:13:44;;;;;;;;;0.00;0.00;;;;;18.95;60.19;100117.81;5080411;28;45210;-80
2023/04/01 11:16:37;;;;;;;;;0.00;0.00;;;;;18.60;54.42;100121.56;5026850;28;45330;-79
2023/04/01 11:19:30;;;;;;;;;2.00;0.00;;;;;18.77;57.90;100108.13;5079692;28;45475;-79
2023/04/01 11:22:14;;;;;;;;;0.00;0.00;;;;;19.01;58.70;100106.03;5074924;28;45359;-78
2023/04/01 11:24:50;;;;;;;;;0.00;0.00;;;;;19.27;60.56;100103.75;5045248;28;45401;-78
2023/04/01 11:27:37;;;;;;;;;0.00;0.00;;;;;19.48;57.69;100116.69;5075300;28;45375;-79
2023/04/01 11:30:15;;;;;;;;;0.00;0.00;;;;;19.53;53.88;100105.97;5060836;28;47367;-80
2023/04/01 11:32:59;;;;;;;;;0.00;0.00;;;;;19.42;52.07;100105.84;5075051;28;45310;-80
2023/04/01 11:35:48;;;;;;;;;0.00;0.00;;;;;19.24;55.12;100098.88;5077834;28;45296;-78
2023/04/01 11:38:28;;;;;;;;;0.00;0.00;;;;;19.31;54.38;100104.09;5065037;28;45460;-77
2023/04/01 11:41:02;;;;;;;;;0.00;0.00;;;;;19.27;55.16;100116.41;5079330;28;45967;-79
2023/04/01 11:43:42;;;;;;;;;0.00;0.00;;;;;19.22;54.05;100117.16;5079582;28;45469;-79
2023/04/01 11:46:11;;;;;;;;;0.00;0.00;;;;;19.24;53.71;100117.72;5079231;28;45380;-79
2023/04/01 11:48:54;;;;;;;;;0.00;0.00;;;;;19.25;53.40;100126.63;5066696;28;45355;-79
2023/04/01 11:51:39;;;;;;;;;0.00;0.00;;;;;19.21;52.70;100115.53;5079201;28;45421;-79
2023/04/01 11:54:44;;;;;;;;;0.00;0.00;;;;;19.18;52.78;100129.47;5077924;28;45459;-78
2023/04/01 11:57:28;;;;;;;;;0.33;0.33;;;;;19.14;51.90;100121.09;5079511;28;45462;-80
2023/04/01 12:00:25;;;;;;;;;0.00;0.00;;;;;19.12;52.88;100120.50;5061547;28;45397;-79
2023/04/01 12:03:28;;;;;;;;;2.00;0.33;;;;;19.15;53.41;100128.09;5049201;28;47246;-79